This is the latest recevied weather packets stored in our database for station/object K7AZM. If no packets are shown the sender has not sent any weather packets the latest 10 day(s).
| Time | Temp. | Humidity | Pressure | Rain* | Wind** | Luminosity | Snow |
|---|---|---|---|---|---|---|---|
| 1777483822 | 27.22° C | 14% | 1016.8 hPa | 0 mm | - | - | - |
| 1777483521 | 27.22° C | 14% | 1016.7 hPa | 0 mm | - | - | - |
| 1777482623 | 27.22° C | 15% | 1016.8 hPa | 0 mm | - | - | - |
| 1777482023 | 26.67° C | 17% | 1016.9 hPa | 0 mm | - | - | - |
| 1777480221 | 25.56° C | 16% | 1016.9 hPa | 0 mm | - | - | - |
| 1777478421 | 24.44° C | 18% | 1016.9 hPa | 0 mm | - | - | - |
| 1777475122 | 22.78° C | 24% | 1017.3 hPa | 0 mm | - | - | - |
| 1777473342 | 20° C | 28% | 1017.1 hPa | 0 mm | - | - | - |
| 1777468521 | 13.89° C | 31% | 1016.4 hPa | 0 mm | - | - | - |
| 1777468222 | 13.89° C | 31% | 1016.4 hPa | 0 mm | - | - | - |
| 1777467323 | 13.89° C | 31% | 1016.2 hPa | 0 mm | - | - | - |
| 1777467044 | 13.33° C | 32% | 1016.2 hPa | 0 mm | - | - | - |
| 1777466722 | 13.33° C | 32% | 1016.1 hPa | 0 mm | - | - | - |
| 1777465822 | 13.89° C | 32% | 1016 hPa | 0 mm | - | - | - |
| 1777462542 | 14.44° C | 30% | 1015.9 hPa | 0 mm | - | - | - |
| 1777461622 | 13.89° C | 30% | 1015.6 hPa | 0 mm | - | - | - |
| 1777460721 | 14.44° C | 29% | 1015.6 hPa | 0 mm | - | - | - |
| 1777457421 | 14.44° C | 29% | 1015.8 hPa | 0 mm | - | - | - |
| 1777456543 | 15° C | 28% | 1015.9 hPa | 0 mm | - | - | - |
| 1777455922 | 15° C | 28% | 1015.8 hPa | 0 mm | - | - | - |
| 1777455021 | 15.56° C | 28% | 1015.8 hPa | 0 mm | - | - | - |
| 1777454122 | 15.56° C | 27% | 1015.8 hPa | 0 mm | - | - | - |
| 1777450521 | 16.11° C | 26% | 1016 hPa | 0 mm | - | - | - |
| 1777449022 | 16.67° C | 27% | 1016 hPa | 0 mm | - | - | - |
| 1777446922 | 17.22° C | 24% | 1016.2 hPa | 0 mm | - | - | - |
* Rain latest hour (hover to see other rain measurements)
** Current wind speed in m/s (hover to see current wind gust speed)